Time;durP1;ratioP1;P1;durP2;ratioP2;P2;SDS_P1;SDS_P2;PMS_P1;PMS_P2;Temp;Humidity;BMP_temperature;BMP_pressure;BME280_temperature;BME280_humidity;BME280_pressure;Samples;Min_cycle;Max_cycle;Signal;HPM_P1;HPM_P2
2023/05/05 00:01:10;;;;;;;9.80;3.00;;;9.80;1.00;;;;;;5033143;28;20175;-49
2023/05/05 00:03:36;;;;;;;9.47;3.03;;;9.80;1.00;;;;;;5033427;28;20616;-49
2023/05/05 00:06:02;;;;;;;6.53;2.77;;;9.70;1.00;;;;;;5033107;28;20320;-49
2023/05/05 00:08:28;;;;;;;14.20;2.90;;;9.70;1.00;;;;;;5033190;28;20762;-49
2023/05/05 00:10:54;;;;;;;7.83;3.07;;;9.70;1.00;;;;;;5032972;28;20505;-48
2023/05/05 00:13:20;;;;;;;7.00;2.87;;;9.70;1.00;;;;;;5033081;28;20207;-49
2023/05/05 00:15:48;;;;;;;6.30;3.00;;;9.60;1.00;;;;;;5033324;28;20421;-48
2023/05/05 00:18:15;;;;;;;6.17;2.90;;;9.60;1.00;;;;;;5032842;28;20917;-49
2023/05/05 00:20:41;;;;;;;7.30;3.00;;;9.60;1.00;;;;;;5033200;28;20422;-49
2023/05/05 00:23:06;;;;;;;5.00;2.97;;;9.50;1.00;;;;;;5032809;28;20440;-49
2023/05/05 00:25:32;;;;;;;6.80;2.90;;;9.50;1.00;;;;;;5032814;28;20184;-49
2023/05/05 00:27:59;;;;;;;9.50;3.17;;;9.50;1.00;;;;;;5033125;28;20184;-49
2023/05/05 00:30:24;;;;;;;7.37;3.20;;;9.40;1.00;;;;;;5033000;28;20639;-49
2023/05/05 00:32:50;;;;;;;9.17;3.13;;;9.40;1.00;;;;;;5032846;28;20460;-49
2023/05/05 00:35:16;;;;;;;6.73;2.70;;;9.40;1.00;;;;;;5032909;28;20454;-49
2023/05/05 00:37:42;;;;;;;9.00;3.10;;;9.40;1.00;;;;;;5032861;28;20195;-49
2023/05/05 00:40:08;;;;;;;7.70;3.33;;;9.40;1.00;;;;;;5032686;28;20424;-49
2023/05/05 00:42:52;;;;;;;8.27;3.07;;;9.40;1.00;;;;;;5032734;28;20643;-49
2023/05/05 00:45:19;;;;;;;7.17;3.33;;;9.40;1.00;;;;;;5036431;28;20412;-49
2023/05/05 00:47:52;;;;;;;7.53;3.10;;;9.30;1.00;;;;;;5036132;28;20496;-49
2023/05/05 00:50:22;;;;;;;9.03;3.07;;;9.30;1.00;;;;;;5036405;28;20413;-49
2023/05/05 00:52:49;;;;;;;6.50;2.90;;;9.20;1.00;;;;;;5035983;28;20497;-49
2023/05/05 00:55:15;;;;;;;5.37;2.90;;;9.30;1.00;;;;;;5036034;28;20910;-49
2023/05/05 00:57:40;;;;;;;8.60;3.77;;;9.20;1.00;;;;;;5036258;28;20449;-49
2023/05/05 01:00:08;;;;;;;5.10;2.83;;;9.20;1.00;;;;;;5036293;28;20527;-48
2023/05/05 01:02:34;;;;;;;5.73;2.97;;;9.20;1.00;;;;;;5036145;28;20659;-49
2023/05/05 01:05:02;;;;;;;8.80;3.03;;;9.20;1.00;;;;;;5035916;28;20422;-49
2023/05/05 01:07:47;;;;;;;5.50;3.30;;;9.10;1.00;;;;;;5035759;28;20426;-49
2023/05/05 01:10:35;;;;;;;7.83;2.80;;;9.10;1.00;;;;;;5036113;28;20403;-49
2023/05/05 01:13:17;;;;;;;5.33;2.50;;;9.10;1.00;;;;;;5036119;28;20541;-49
2023/05/05 01:15:52;;;;;;;8.60;2.53;;;9.00;1.00;;;;;;5035914;28;20993;-49
2023/05/05 01:18:39;;;;;;;8.37;3.13;;;9.00;1.00;;;;;;5035972;28;20421;-49
2023/05/05 01:21:27;;;;;;;9.23;3.60;;;9.00;1.00;;;;;;5035762;28;20855;-49
2023/05/05 01:24:02;;;;;;;10.70;3.20;;;9.00;1.00;;;;;;5035546;28;20430;-49
2023/05/05 01:26:47;;;;;;;8.70;3.10;;;9.00;1.00;;;;;;5035598;28;20874;-49
2023/05/05 01:29:34;;;;;;;7.43;2.77;;;8.90;1.00;;;;;;5036042;28;20771;-49
2023/05/05 01:32:06;;;;;;;5.93;3.03;;;8.80;1.00;;;;;;5035567;28;20413;-49
2023/05/05 01:34:38;;;;;;;8.20;2.90;;;8.80;1.00;;;;;;5035560;28;20441;-49
2023/05/05 01:37:15;;;;;;;6.20;2.77;;;8.80;1.00;;;;;;5035213;28;20408;-48
2023/05/05 01:39:42;;;;;;;6.13;3.27;;;8.80;1.00;;;;;;5035634;28;20472;-49
2023/05/05 01:42:13;;;;;;;6.10;3.00;;;8.80;1.00;;;;;;5035486;28;20422;-48
2023/05/05 01:44:42;;;;;;;14.73;3.33;;;8.80;1.00;;;;;;5035132;28;20452;-49
2023/05/05 01:47:13;;;;;;;7.07;3.57;;;8.80;1.00;;;;;;5034965;28;20417;-49
2023/05/05 01:49:40;;;;;;;5.90;3.10;;;8.80;1.00;;;;;;5034865;28;20813;-49
2023/05/05 01:52:08;;;;;;;7.63;3.30;;;8.70;1.00;;;;;;5035409;28;20531;-49
2023/05/05 01:54:34;;;;;;;7.07;3.23;;;8.70;1.00;;;;;;5033994;28;20422;-49
2023/05/05 01:57:03;;;;;;;6.47;2.90;;;8.70;1.00;;;;;;5035022;28;20472;-49
2023/05/05 01:59:31;;;;;;;6.67;3.00;;;8.80;1.00;;;;;;5035153;28;20232;-48
2023/05/05 02:02:00;;;;;;;9.30;2.90;;;8.80;1.00;;;;;;5035040;28;20450;-49
2023/05/05 02:04:28;;;;;;;7.40;3.50;;;8.80;1.00;;;;;;5034935;28;20418;-49
2023/05/05 02:06:55;;;;;;;8.73;3.33;;;8.70;1.00;;;;;;5035201;28;20436;-49
2023/05/05 02:09:24;;;;;;;9.90;2.93;;;8.70;1.00;;;;;;5034942;28;20446;-49
2023/05/05 02:11:50;;;;;;;5.70;2.87;;;8.70;1.00;;;;;;5034930;28;20484;-49
2023/05/05 02:14:18;;;;;;;9.50;3.40;;;8.70;1.00;;;;;;5034529;28;20426;-49
2023/05/05 02:16:45;;;;;;;7.80;3.33;;;8.70;1.00;;;;;;5034799;28;20431;-50
2023/05/05 02:19:12;;;;;;;9.63;3.40;;;8.70;1.00;;;;;;5034659;28;20917;-49
2023/05/05 02:21:39;;;;;;;3.83;2.50;;;8.70;1.00;;;;;;5034540;28;20449;-49
2023/05/05 02:24:06;;;;;;;10.77;3.90;;;8.70;1.00;;;;;;5034815;28;20413;-49
2023/05/05 02:26:35;;;;;;;5.60;3.37;;;8.70;1.00;;;;;;5034475;28;20429;-49
2023/05/05 02:29:13;;;;;;;5.47;3.23;;;8.70;1.00;;;;;;5034745;28;20422;-50
2023/05/05 02:31:45;;;;;;;5.97;3.03;;;8.60;1.00;;;;;;5034623;28;20414;-49
2023/05/05 02:34:13;;;;;;;9.33;3.83;;;8.60;1.00;;;;;;5034282;28;20580;-49
2023/05/05 02:36:42;;;;;;;9.13;2.90;;;8.60;1.00;;;;;;5034470;28;20425;-49
2023/05/05 02:39:23;;;;;;;7.40;3.50;;;8.60;1.00;;;;;;5034386;28;20425;-49
2023/05/05 02:41:52;;;;;;;6.43;3.23;;;8.50;1.00;;;;;;5033846;28;20403;-49
2023/05/05 02:44:20;;;;;;;6.23;2.87;;;8.50;1.00;;;;;;5034250;28;20563;-49
2023/05/05 02:46:46;;;;;;;6.60;3.60;;;8.50;1.00;;;;;;5034061;28;20418;-49
2023/05/05 02:49:11;;;;;;;8.67;3.77;;;8.40;1.00;;;;;;5034305;28;20983;-49
2023/05/05 02:51:37;;;;;;;11.97;3.37;;;8.40;1.00;;;;;;5034141;28;20443;-49
2023/05/05 02:54:03;;;;;;;4.63;3.30;;;8.50;1.00;;;;;;5034048;28;20211;-49
2023/05/05 02:56:35;;;;;;;6.63;3.50;;;8.40;1.00;;;;;;5034105;28;20227;-48
2023/05/05 03:00:05;;;;;;;7.13;3.20;;;8.40;1.00;;;;;;5033852;28;20979;-49
2023/05/05 03:02:52;;;;;;;8.30;3.10;;;8.30;1.00;;;;;;4991880;28;20486;-49
2023/05/05 03:05:23;;;;;;;6.73;3.20;;;8.30;1.00;;;;;;5031014;28;20426;-49
2023/05/05 03:08:02;;;;;;;6.70;3.57;;;8.40;1.00;;;;;;5033657;28;20472;-49
2023/05/05 03:10:33;;;;;;;6.40;3.43;;;8.40;1.00;;;;;;5034207;28;20434;-49
2023/05/05 03:13:00;;;;;;;7.43;3.80;;;8.30;1.00;;;;;;5033869;28;20457;-48
2023/05/05 03:15:40;;;;;;;11.53;3.23;;;8.30;1.00;;;;;;5033753;28;20434;-48
2023/05/05 03:18:07;;;;;;;7.73;3.20;;;8.30;1.00;;;;;;5033737;28;20417;-49
2023/05/05 03:20:33;;;;;;;8.70;3.47;;;8.30;1.00;;;;;;5033779;28;20561;-48
2023/05/05 03:23:01;;;;;;;7.60;3.57;;;8.20;1.00;;;;;;5033641;28;20418;-49
2023/05/05 03:25:46;;;;;;;5.73;3.07;;;8.20;1.00;;;;;;5033132;28;20442;-49
2023/05/05 03:28:16;;;;;;;6.20;3.63;;;8.20;1.00;;;;;;5033073;28;20898;-49
2023/05/05 03:30:42;;;;;;;6.03;3.50;;;8.20;1.00;;;;;;5033566;28;20883;-49
2023/05/05 03:33:10;;;;;;;6.93;3.27;;;8.20;1.00;;;;;;5033625;28;20462;-49
2023/05/05 03:35:36;;;;;;;10.00;3.63;;;8.20;1.00;;;;;;5033775;28;20425;-49
2023/05/05 03:38:01;;;;;;;6.40;3.33;;;8.10;1.00;;;;;;5033507;28;20567;-49
2023/05/05 03:40:28;;;;;;;9.47;3.47;;;8.10;1.00;;;;;;5033567;28;20197;-49
2023/05/05 03:42:53;;;;;;;15.33;3.80;;;8.10;1.00;;;;;;5033136;28;20286;-49
2023/05/05 03:45:19;;;;;;;7.23;3.60;;;8.20;1.00;;;;;;5033010;28;20459;-49
2023/05/05 03:47:44;;;;;;;6.60;3.57;;;8.20;1.00;;;;;;5033013;28;20235;-48
2023/05/05 03:50:10;;;;;;;9.17;4.03;;;8.10;1.00;;;;;;5033518;28;20175;-48
2023/05/05 03:52:36;;;;;;;14.13;3.80;;;8.20;1.00;;;;;;5033460;28;20727;-49
2023/05/05 03:55:01;;;;;;;8.80;4.17;;;8.20;1.00;;;;;;5033356;28;20233;-49
2023/05/05 03:57:27;;;;;;;6.80;3.73;;;8.20;1.00;;;;;;5033315;28;20188;-49
2023/05/05 03:59:53;;;;;;;12.40;4.27;;;8.10;1.00;;;;;;5033160;28;20632;-49
2023/05/05 04:02:19;;;;;;;8.70;4.23;;;8.10;1.00;;;;;;5032971;28;20184;-48
2023/05/05 04:04:44;;;;;;;6.40;4.40;;;8.20;1.00;;;;;;5033181;28;20186;-49
2023/05/05 04:07:10;;;;;;;11.37;4.07;;;8.20;1.00;;;;;;5032936;28;20417;-48
2023/05/05 04:09:43;;;;;;;9.13;4.03;;;8.30;1.00;;;;;;5033057;28;20254;-49
2023/05/05 04:12:11;;;;;;;6.57;4.00;;;8.30;1.00;;;;;;5033206;28;20199;-49
2023/05/05 04:14:37;;;;;;;12.60;5.10;;;8.30;1.00;;;;;;5032972;28;20421;-49
2023/05/05 04:17:03;;;;;;;16.67;4.60;;;8.40;1.00;;;;;;5033063;28;20413;-49
2023/05/05 04:19:32;;;;;;;10.90;4.63;;;8.40;1.00;;;;;;5036097;28;20541;-49
2023/05/05 04:21:58;;;;;;;10.37;5.07;;;8.40;1.00;;;;;;5036821;28;20414;-48
2023/05/05 04:24:24;;;;;;;7.00;4.00;;;8.40;1.00;;;;;;5036671;28;20744;-49
2023/05/05 04:26:51;;;;;;;11.97;4.93;;;8.40;1.00;;;;;;5036822;28;20428;-49
2023/05/05 04:29:16;;;;;;;9.80;4.37;;;8.40;1.00;;;;;;5036630;28;20468;-49
2023/05/05 04:31:42;;;;;;;9.27;4.90;;;8.40;1.00;;;;;;5036835;28;20777;-48
2023/05/05 04:34:08;;;;;;;11.37;5.40;;;8.40;1.00;;;;;;5036728;28;20215;-48
2023/05/05 04:36:33;;;;;;;13.50;5.60;;;8.50;1.00;;;;;;5036520;28;20176;-49
2023/05/05 04:38:59;;;;;;;12.87;5.13;;;8.50;1.00;;;;;;5036814;28;20253;-49
2023/05/05 04:41:25;;;;;;;9.67;5.43;;;8.50;1.00;;;;;;5036585;28;20647;-49
2023/05/05 04:43:51;;;;;;;14.87;6.17;;;8.50;1.00;;;;;;5036715;28;20544;-49
2023/05/05 04:46:17;;;;;;;13.90;5.80;;;8.50;1.00;;;;;;5036129;28;20175;-48
2023/05/05 04:48:42;;;;;;;13.73;6.23;;;8.50;1.00;;;;;;5036061;28;20473;-49
2023/05/05 04:51:08;;;;;;;12.00;5.37;;;8.60;1.00;;;;;;5036410;28;20233;-49
2023/05/05 04:53:34;;;;;;;13.27;6.67;;;8.60;1.00;;;;;;5035762;28;20675;-48
2023/05/05 04:56:00;;;;;;;16.23;5.80;;;8.70;1.00;;;;;;5035921;28;20191;-49
2023/05/05 04:58:26;;;;;;;11.03;5.90;;;8.70;1.00;;;;;;5035861;28;20191;-49
2023/05/05 05:00:51;;;;;;;16.13;6.37;;;8.70;1.00;;;;;;5036444;28;20413;-49
2023/05/05 05:03:17;;;;;;;20.10;6.50;;;8.80;1.00;;;;;;5036342;28;20915;-49
2023/05/05 05:05:43;;;;;;;16.47;6.60;;;8.80;1.00;;;;;;5036142;28;20180;-49
2023/05/05 05:08:08;;;;;;;13.77;6.43;;;8.90;1.00;;;;;;5035879;28;20183;-48
2023/05/05 05:10:34;;;;;;;21.77;6.43;;;9.00;1.00;;;;;;5035927;28;20270;-49
2023/05/05 05:13:00;;;;;;;10.40;6.03;;;9.10;1.00;;;;;;5035530;28;20219;-49
2023/05/05 05:15:26;;;;;;;14.33;6.27;;;9.10;1.00;;;;;;5035611;28;20929;-48
2023/05/05 05:17:51;;;;;;;12.10;6.07;;;9.20;1.00;;;;;;5035716;28;20653;-48
2023/05/05 05:20:17;;;;;;;13.13;6.10;;;9.30;1.00;;;;;;5035991;28;20185;-48
2023/05/05 05:22:43;;;;;;;17.13;6.43;;;9.40;1.00;;;;;;5035978;28;20646;-49
2023/05/05 05:25:09;;;;;;;12.70;6.23;;;9.50;1.00;;;;;;5035308;28;20415;-49
2023/05/05 05:27:35;;;;;;;12.03;5.43;;;9.50;1.00;;;;;;5035901;28;20472;-48
2023/05/05 05:30:01;;;;;;;18.03;5.60;;;9.50;1.00;;;;;;5034064;28;20639;-49
2023/05/05 05:32:26;;;;;;;15.33;6.07;;;9.50;1.00;;;;;;5035578;28;20215;-49
2023/05/05 05:34:52;;;;;;;12.53;5.87;;;9.60;1.00;;;;;;5035662;28;20555;-48
2023/05/05 05:37:17;;;;;;;16.27;6.63;;;9.60;1.00;;;;;;5035451;28;20179;-49
2023/05/05 05:39:43;;;;;;;13.10;6.43;;;9.60;1.00;;;;;;5035411;28;20191;-49
2023/05/05 05:42:08;;;;;;;14.53;6.20;;;9.70;1.00;;;;;;5035227;28;20180;-49
2023/05/05 05:44:34;;;;;;;13.17;6.20;;;10.00;1.00;;;;;;5035254;28;20191;-49
2023/05/05 05:46:59;;;;;;;17.67;6.90;;;10.10;1.00;;;;;;5034853;28;20175;-49
2023/05/05 05:49:25;;;;;;;15.67;6.00;;;10.40;1.00;;;;;;5035127;28;20311;-50
2023/05/05 05:51:51;;;;;;;16.63;5.80;;;10.50;1.00;;;;;;5034983;28;20191;-50
2023/05/05 05:54:17;;;;;;;21.43;6.80;;;10.60;1.00;;;;;;5033548;28;20438;-49
2023/05/05 05:56:42;;;;;;;14.00;5.57;;;10.90;1.00;;;;;;5035205;28;20180;-50
2023/05/05 05:59:09;;;;;;;10.40;5.77;;;11.10;1.00;;;;;;5034774;28;20175;-49
2023/05/05 06:01:34;;;;;;;10.60;6.03;;;11.30;1.00;;;;;;5035243;28;20570;-49
2023/05/05 06:04:00;;;;;;;11.60;5.80;;;11.60;1.00;;;;;;5035253;28;20426;-49
2023/05/05 06:06:26;;;;;;;13.10;5.77;;;11.70;1.00;;;;;;5034883;28;20521;-49
2023/05/05 06:08:52;;;;;;;12.60;6.20;;;11.80;1.00;;;;;;5034766;28;20695;-49
2023/05/05 06:11:18;;;;;;;10.33;5.57;;;12.10;1.00;;;;;;5034774;28;20424;-50
2023/05/05 06:13:43;;;;;;;10.60;5.90;;;12.10;1.00;;;;;;5035018;28;20217;-49
2023/05/05 06:16:09;;;;;;;13.20;5.77;;;12.20;1.00;;;;;;5034570;28;20187;-49
2023/05/05 06:18:34;;;;;;;9.23;6.00;;;12.40;1.00;;;;;;5034561;28;20229;-50
2023/05/05 06:21:01;;;;;;;11.73;5.63;;;12.80;1.00;;;;;;5034589;28;20198;-53
2023/05/05 06:23:27;;;;;;;11.50;5.40;;;13.00;1.00;;;;;;5034627;28;20191;-50
2023/05/05 06:25:54;;;;;;;12.50;5.83;;;13.00;1.00;;;;;;5034672;28;20411;-49
2023/05/05 06:28:20;;;;;;;15.70;5.93;;;12.50;1.00;;;;;;5034733;28;20198;-49
2023/05/05 06:30:45;;;;;;;16.33;5.90;;;12.10;1.00;;;;;;5034121;28;20418;-49
2023/05/05 06:33:11;;;;;;;10.77;6.10;;;12.10;1.00;;;;;;5034387;28;20216;-49
2023/05/05 06:35:37;;;;;;;16.60;5.80;;;12.30;1.00;;;;;;5033963;28;20651;-49
2023/05/05 06:38:03;;;;;;;11.30;5.40;;;12.30;1.00;;;;;;5034179;28;20634;-50
2023/05/05 06:40:28;;;;;;;12.90;6.17;;;12.40;1.00;;;;;;5034420;28;20186;-50
2023/05/05 06:42:54;;;;;;;10.63;6.03;;;12.60;1.00;;;;;;5034135;28;20872;-50
2023/05/05 06:45:20;;;;;;;11.73;6.30;;;12.70;1.00;;;;;;5034191;28;20672;-50
2023/05/05 06:47:45;;;;;;;8.43;5.77;;;13.10;1.00;;;;;;5034204;28;20695;-50
2023/05/05 06:50:11;;;;;;;10.80;5.80;;;13.50;1.00;;;;;;5034112;28;20172;-54
2023/05/05 06:52:37;;;;;;;9.87;5.43;;;13.80;1.00;;;;;;5033882;28;20544;-49
2023/05/05 06:55:03;;;;;;;13.70;5.87;;;14.20;1.00;;;;;;5034154;28;20218;-50
2023/05/05 06:57:29;;;;;;;10.40;5.30;;;14.50;1.00;;;;;;5032437;28;20176;-50
2023/05/05 06:59:54;;;;;;;9.00;5.60;;;14.50;1.00;;;;;;5034186;28;20468;-49
2023/05/05 07:02:20;;;;;;;11.80;5.43;;;14.50;1.00;;;;;;5033790;28;20627;-50
2023/05/05 07:04:45;;;;;;;14.23;5.47;;;14.70;1.00;;;;;;5033803;28;20199;-49
2023/05/05 07:07:11;;;;;;;11.93;5.30;;;14.50;1.00;;;;;;5034055;28;20203;-50
2023/05/05 07:09:37;;;;;;;10.00;5.67;;;14.10;1.00;;;;;;5033934;28;20214;-50
2023/05/05 07:12:03;;;;;;;12.30;5.80;;;13.80;1.00;;;;;;5028486;28;20179;-51
2023/05/05 07:14:28;;;;;;;11.10;6.03;;;13.40;1.00;;;;;;5023047;28;20309;-49
2023/05/05 07:16:54;;;;;;;11.50;5.20;;;13.20;1.00;;;;;;5032636;28;20468;-49
2023/05/05 07:19:19;;;;;;;14.30;5.60;;;13.20;1.00;;;;;;5032626;28;20182;-49
2023/05/05 07:21:46;;;;;;;9.27;5.67;;;13.10;1.00;;;;;;5033462;28;20656;-50
2023/05/05 07:24:11;;;;;;;10.33;5.47;;;13.10;1.00;;;;;;5033756;28;20196;-49
2023/05/05 07:26:37;;;;;;;12.00;5.37;;;12.90;1.00;;;;;;5033750;28;20416;-49
2023/05/05 07:29:04;;;;;;;18.77;6.40;;;12.90;1.00;;;;;;5033824;28;20176;-51
2023/05/05 07:31:30;;;;;;;12.50;6.20;;;13.00;1.00;;;;;;5033757;28;20187;-49
2023/05/05 07:33:56;;;;;;;9.10;5.43;;;13.00;1.00;;;;;;5033530;28;20458;-49
2023/05/05 07:36:21;;;;;;;12.63;6.20;;;13.00;1.00;;;;;;5033424;28;20948;-49
2023/05/05 07:38:47;;;;;;;11.60;5.80;;;13.10;1.00;;;;;;5032557;28;20921;-50
2023/05/05 07:41:13;;;;;;;11.33;5.30;;;13.30;1.00;;;;;;5033299;28;20931;-49
2023/05/05 07:43:41;;;;;;;15.80;6.27;;;13.50;1.00;;;;;;5033267;28;20202;-49
2023/05/05 07:46:07;;;;;;;9.77;5.80;;;13.50;1.00;;;;;;5033352;28;20188;-50
2023/05/05 07:48:33;;;;;;;12.20;5.77;;;13.60;1.00;;;;;;5032246;28;20528;-50
2023/05/05 07:50:59;;;;;;;8.20;5.23;;;13.60;1.00;;;;;;5032185;28;20223;-49
2023/05/05 07:53:24;;;;;;;10.97;5.90;;;13.70;1.00;;;;;;5033362;28;20233;-50
2023/05/05 07:55:50;;;;;;;13.50;6.27;;;13.70;1.00;;;;;;5036418;28;20274;-49
2023/05/05 07:58:15;;;;;;;10.70;5.80;;;13.70;1.00;;;;;;5036481;28;20191;-49
2023/05/05 08:00:42;;;;;;;11.17;5.90;;;13.80;1.00;;;;;;5036086;28;20633;-50
2023/05/05 08:03:08;;;;;;;11.63;5.80;;;13.90;1.00;;;;;;5037072;28;20183;-49
2023/05/05 08:05:34;;;;;;;12.80;6.03;;;14.00;1.00;;;;;;5037238;28;20421;-50
2023/05/05 08:08:00;;;;;;;10.83;6.20;;;13.90;1.00;;;;;;5036800;28;20765;-51
2023/05/05 08:10:25;;;;;;;10.93;5.37;;;13.90;1.00;;;;;;5037125;28;20551;-50
2023/05/05 08:12:53;;;;;;;11.63;5.80;;;13.90;1.00;;;;;;5036899;28;20203;-50
2023/05/05 08:15:18;;;;;;;12.13;5.50;;;14.10;1.00;;;;;;5037373;28;20239;-50
2023/05/05 08:17:49;;;;;;;19.03;6.00;;;14.50;1.00;;;;;;5036997;28;20411;-50
2023/05/05 08:20:16;;;;;;;15.13;5.80;;;15.20;1.00;;;;;;5036560;28;20201;-50
2023/05/05 08:22:42;;;;;;;9.67;5.60;;;15.60;1.00;;;;;;5036542;28;20422;-50
2023/05/05 08:25:11;;;;;;;14.67;6.00;;;16.00;1.00;;;;;;5036575;28;20497;-50
2023/05/05 08:27:41;;;;;;;12.33;6.07;;;16.20;1.00;;;;;;5036531;28;20689;-50
2023/05/05 08:30:08;;;;;;;10.37;5.70;;;16.70;1.00;;;;;;5036750;28;20415;-49
2023/05/05 08:32:34;;;;;;;10.63;5.33;;;17.10;1.00;;;;;;5036269;28;20464;-49
2023/05/05 08:35:03;;;;;;;9.67;5.20;;;17.70;1.00;;;;;;5036727;28;20429;-50
2023/05/05 08:37:29;;;;;;;10.50;5.43;;;18.20;1.00;;;;;;5036641;28;20579;-51
2023/05/05 08:39:56;;;;;;;8.83;5.60;;;18.00;1.00;;;;;;5036255;28;20412;-51
2023/05/05 08:42:22;;;;;;;13.37;6.13;;;17.90;1.00;;;;;;5036572;28;20423;-51
2023/05/05 08:44:48;;;;;;;10.03;5.07;;;17.80;1.00;;;;;;5036117;28;20416;-51
2023/05/05 08:47:14;;;;;;;18.97;6.40;;;17.70;1.00;;;;;;5036400;28;20213;-50
2023/05/05 08:49:47;;;;;;;10.37;5.90;;;17.30;1.00;;;;;;5036423;28;20230;-51
2023/05/05 08:52:21;;;;;;;11.97;6.10;;;16.80;1.00;;;;;;5036493;28;20408;-50
2023/05/05 08:55:05;;;;;;;12.00;6.40;;;16.60;1.00;;;;;;5036529;28;20429;-50
2023/05/05 08:57:39;;;;;;;12.37;6.10;;;16.60;1.00;;;;;;5035905;28;20408;-50
2023/05/05 09:00:06;;;;;;;9.83;5.13;;;16.60;1.00;;;;;;5036023;28;20486;-51
2023/05/05 09:02:33;;;;;;;12.40;6.57;;;16.90;1.00;;;;;;5036053;28;20443;-50
2023/05/05 09:05:03;;;;;;;12.73;5.80;;;17.30;1.00;;;;;;5035882;28;20502;-50
2023/05/05 09:07:31;;;;;;;12.40;6.10;;;17.70;1.00;;;;;;5035493;28;20415;-50
2023/05/05 09:09:58;;;;;;;14.00;6.23;;;17.60;1.00;;;;;;5036205;28;20415;-50
2023/05/05 09:12:27;;;;;;;11.70;6.03;;;17.80;1.00;;;;;;5035556;28;20461;-50
2023/05/05 09:14:53;;;;;;;17.70;6.27;;;17.60;1.00;;;;;;5036246;28;20459;-50
2023/05/05 09:17:24;;;;;;;10.83;5.97;;;17.50;1.00;;;;;;5035925;28;20891;-51
2023/05/05 09:20:06;;;;;;;12.60;6.30;;;17.30;1.00;;;;;;5035622;28;20270;-50
2023/05/05 09:22:35;;;;;;;13.23;5.50;;;17.20;1.00;;;;;;5035408;28;20415;-51
2023/05/05 09:25:00;;;;;;;16.93;6.20;;;17.20;1.00;;;;;;5035548;28;20943;-51
2023/05/05 09:27:26;;;;;;;10.77;5.90;;;17.20;1.00;;;;;;5036008;28;20423;-51
2023/05/05 09:29:52;;;;;;;15.43;6.03;;;17.20;1.00;;;;;;5035687;28;20262;-50
2023/05/05 09:32:18;;;;;;;11.37;5.70;;;17.20;1.00;;;;;;5035251;28;20176;-51
2023/05/05 09:34:59;;;;;;;12.00;5.90;;;17.10;1.00;;;;;;5035558;28;20429;-51
2023/05/05 09:37:29;;;;;;;9.97;5.80;;;16.80;1.00;;;;;;5035495;28;20426;-50
2023/05/05 09:39:57;;;;;;;8.70;5.90;;;16.60;1.00;;;;;;5035442;28;20494;-51
2023/05/05 09:42:23;;;;;;;14.10;6.10;;;16.20;1.00;;;;;;5035288;28;20441;-51
2023/05/05 09:44:48;;;;;;;14.20;6.30;;;16.00;1.00;;;;;;5035232;28;20852;-50
2023/05/05 09:47:14;;;;;;;16.00;5.90;;;15.80;1.00;;;;;;5035175;28;20171;-51
2023/05/05 09:49:39;;;;;;;8.30;5.73;;;15.70;1.00;;;;;;5035277;28;20202;-50
2023/05/05 09:52:15;;;;;;;9.83;5.97;;;15.50;1.00;;;;;;5035126;28;20195;-50
2023/05/05 09:54:42;;;;;;;13.63;6.67;;;15.40;1.00;;;;;;5035112;28;20183;-50
2023/05/05 09:57:08;;;;;;;14.13;6.20;;;15.40;1.00;;;;;;5034763;28;20421;-51
2023/05/05 09:59:33;;;;;;;10.07;5.80;;;15.40;1.00;;;;;;5035349;28;20867;-50
2023/05/05 10:02:11;;;;;;;12.17;6.87;;;15.40;1.00;;;;;;5034765;28;20449;-51
2023/05/05 10:04:37;;;;;;;9.00;5.73;;;15.40;1.00;;;;;;5034855;28;20640;-50
2023/05/05 10:07:03;;;;;;;11.87;5.87;;;15.60;1.00;;;;;;5034730;28;20418;-50
2023/05/05 10:09:30;;;;;;;11.37;5.97;;;15.80;1.00;;;;;;5034497;28;20554;-50
2023/05/05 10:11:58;;;;;;;10.80;6.07;;;16.10;1.00;;;;;;5034826;28;20312;-49
2023/05/05 10:14:25;;;;;;;9.20;5.57;;;16.30;1.00;;;;;;5034676;28;20483;-50
2023/05/05 10:16:52;;;;;;;9.27;5.70;;;16.60;1.00;;;;;;5034124;28;20415;-50
2023/05/05 10:19:19;;;;;;;16.50;5.80;;;17.00;1.00;;;;;;5034795;28;20432;-50
2023/05/05 10:21:51;;;;;;;8.33;5.40;;;17.10;1.00;;;;;;5034414;28;20486;-50
2023/05/05 10:24:34;;;;;;;13.70;5.67;;;17.30;1.00;;;;;;5034992;28;20727;-49
2023/05/05 10:27:03;;;;;;;9.20;5.70;;;17.30;1.00;;;;;;5034259;28;20403;-49
2023/05/05 10:29:44;;;;;;;10.40;5.50;;;17.40;1.00;;;;;;5034468;28;20420;-49
2023/05/05 10:32:36;;;;;;;9.93;6.10;;;17.40;1.00;;;;;;5034629;28;20429;-49
2023/05/05 10:35:06;;;;;;;8.57;5.60;;;17.80;1.00;;;;;;5007509;28;21045;-50
2023/05/05 10:37:32;;;;;;;10.57;6.13;;;18.30;1.00;;;;;;5033791;28;20423;-51
2023/05/05 10:40:00;;;;;;;8.63;5.47;;;18.70;1.00;;;;;;5033829;28;20425;-50
2023/05/05 10:42:26;;;;;;;8.33;5.73;;;18.80;1.00;;;;;;5034342;28;20482;-51
2023/05/05 10:44:52;;;;;;;13.23;6.00;;;19.30;1.00;;;;;;5034154;28;20416;-50
2023/05/05 10:47:19;;;;;;;11.40;5.50;;;19.70;1.00;;;;;;5033976;28;20413;-51
2023/05/05 10:50:00;;;;;;;11.97;6.40;;;19.60;1.00;;;;;;5034047;28;20177;-50
2023/05/05 10:52:31;;;;;;;11.02;5.00;;;19.20;1.00;;;;;;5031417;28;20778;-49
2023/05/05 10:55:20;;;;;;;9.97;5.30;;;18.90;1.00;;;;;;5033827;28;20183;-50
2023/05/05 10:57:50;;;;;;;8.70;5.77;;;19.30;1.00;;;;;;5034048;28;20437;-50
2023/05/05 11:00:48;;;;;;;9.97;5.50;;;19.40;1.00;;;;;;5033892;28;20417;-51
2023/05/05 11:03:16;;;;;;;9.70;4.90;;;19.30;99.90;;;;;;5034162;28;20400;-52
2023/05/05 11:08:31;;;;;;;13.60;5.20;;;18.90;99.90;;;;;;5034013;28;20470;-51
2023/05/05 11:10:57;;;;;;;11.90;5.47;;;18.80;1.00;;;;;;5033626;28;20911;-51
2023/05/05 11:13:23;;;;;;;9.07;4.80;;;18.80;1.00;;;;;;5033468;28;20559;-51
2023/05/05 11:15:54;;;;;;;9.37;4.67;;;18.60;1.00;;;;;;5033849;28;20420;-50
2023/05/05 11:18:38;;;;;;;7.50;5.50;;;18.40;1.00;;;;;;5033229;28;21225;-50
2023/05/05 11:21:15;;;;;;;8.50;5.03;;;18.30;1.00;;;;;;5033955;28;20486;-50
2023/05/05 11:23:49;;;;;;;8.63;5.33;;;18.20;1.00;;;;;;5033523;28;20960;-50
2023/05/05 11:26:16;;;;;;;10.03;4.80;;;18.20;1.00;;;;;;5033737;28;20425;-51
2023/05/05 11:29:03;;;;;;;13.97;4.90;;;18.20;1.00;;;;;;5033400;28;20420;-50
2023/05/05 11:31:30;;;;;;;14.93;4.87;;;18.10;1.00;;;;;;5033396;28;20492;-51
2023/05/05 11:34:26;;;;;;;6.70;4.87;;;18.00;1.00;;;;;;5033052;28;20913;-49
2023/05/05 11:37:04;;;;;;;11.03;5.23;;;18.00;1.00;;;;;;5033531;28;20432;-51
2023/05/05 11:39:47;;;;;;;9.53;4.87;;;18.10;1.00;;;;;;5033038;28;20759;-50
2023/05/05 11:42:24;;;;;;;13.03;5.53;;;18.10;1.00;;;;;;5033703;28;20409;-50
2023/05/05 11:44:50;;;;;;;8.43;4.60;;;18.20;1.00;;;;;;5032952;28;20935;-50
2023/05/05 11:47:16;;;;;;;7.60;4.87;;;18.30;99.90;;;;;;5033241;28;20455;-51
2023/05/05 11:49:41;;;;;;;7.73;4.80;;;18.30;99.90;;;;;;5033311;28;20459;-50
2023/05/05 11:52:09;;;;;;;13.83;5.00;;;18.30;99.90;;;;;;5033156;28;20585;-50
2023/05/05 11:54:36;;;;;;;8.60;5.10;;;18.20;99.90;;;;;;5033307;28;20183;-50
2023/05/05 11:57:04;;;;;;;9.47;4.70;;;18.10;99.90;;;;;;5033200;28;20434;-49
2023/05/05 11:59:31;;;;;;;14.93;5.57;;;17.80;99.90;;;;;;5033434;28;20478;-49
2023/05/05 12:01:58;;;;;;;18.33;5.30;;;17.60;99.90;;;;;;5033040;28;20747;-49
2023/05/05 12:04:23;;;;;;;7.97;5.60;;;17.40;99.90;;;;;;5032898;28;20420;-49
2023/05/05 12:06:49;;;;;;;12.40;5.33;;;17.20;99.90;;;;;;5032925;28;20432;-53
2023/05/05 12:09:16;;;;;;;7.17;5.17;;;17.20;1.00;;;;;;5033039;28;20261;-49
2023/05/05 12:11:52;;;;;;;11.10;4.87;;;17.10;1.00;;;;;;5032813;28;20649;-49
2023/05/05 12:14:18;;;;;;;9.37;5.10;;;17.10;1.00;;;;;;5032778;28;20460;-50
2023/05/05 12:16:54;;;;;;;9.37;5.10;;;16.90;1.00;;;;;;5033008;28;20422;-50
2023/05/05 12:19:20;;;;;;;11.15;4.50;;;16.90;1.00;;;;;;5032455;28;20409;-50
2023/05/05 12:21:46;;;;;;;7.53;4.80;;;16.80;1.00;;;;;;5032713;28;20188;-50
2023/05/05 12:24:12;;;;;;;14.33;5.67;;;16.80;1.00;;;;;;5032886;28;20418;-50
2023/05/05 12:26:38;;;;;;;9.50;4.50;;;16.80;1.00;;;;;;5033103;28;20218;-50
2023/05/05 12:29:03;;;;;;;7.03;4.57;;;16.80;1.00;;;;;;5032549;28;20862;-49
2023/05/05 12:31:39;;;;;;;11.87;5.53;;;16.90;1.00;;;;;;5033038;28;20187;-49
2023/05/05 12:34:08;;;;;;;9.47;4.70;;;16.90;1.00;;;;;;5032571;28;20207;-50
2023/05/05 12:36:35;;;;;;;10.90;5.00;;;16.90;1.00;;;;;;5032783;28;20507;-50
2023/05/05 12:39:03;;;;;;;13.80;5.70;;;17.00;1.00;;;;;;5033400;28;20474;-50
2023/05/05 12:41:30;;;;;;;8.33;5.20;;;16.90;1.00;;;;;;5036307;28;20466;-49
2023/05/05 12:43:57;;;;;;;8.30;5.17;;;17.00;1.00;;;;;;5036463;28;20465;-50
2023/05/05 12:46:23;;;;;;;8.00;4.63;;;17.00;1.00;;;;;;5036672;28;20805;-50
2023/05/05 12:49:04;;;;;;;9.10;5.20;;;17.00;1.00;;;;;;5036401;28;20475;-50
2023/05/05 12:51:31;;;;;;;15.43;5.77;;;17.10;1.00;;;;;;5036392;28;20184;-50
2023/05/05 12:54:15;;;;;;;13.00;4.80;;;17.10;1.00;;;;;;5036278;28;20459;-50
2023/05/05 12:56:43;;;;;;;9.30;5.00;;;17.20;1.00;;;;;;5036127;28;20495;-50
2023/05/05 12:59:10;;;;;;;9.40;4.90;;;17.30;1.00;;;;;;5036169;28;20469;-50
2023/05/05 13:01:57;;;;;;;10.33;4.07;;;17.30;1.00;;;;;;5035937;28;20428;-50
2023/05/05 13:04:24;;;;;;;8.00;4.87;;;17.30;1.00;;;;;;5035471;28;21080;-50
2023/05/05 13:07:11;;;;;;;10.00;4.50;;;17.20;1.00;;;;;;5036290;28;20429;-50